Bramble, Indiana
Current Conditions -  °F | °C
As of 7:55 PM on Saturday 25 Oct 2014 (Local Time) from KDCY Reporting Station
Clear Clear  
Wind Chill: 65°   Ceiling: Unl
Heat Index: 65°   Visibility: 10mi
Dew Point: 54°   Wind: 9mph
Humidity: 67%   Direction: 250°WSW
Pressure: 29.97"   Gusts: NA
Location:  38.6074°N, 86.9234°W
Report Text: KDCY 260055Z AUTO 25008KT 10SM CLR 18/12 A2997 RMK AO2 T01840121
Loading
Personal Weather Stations






























Interactive Weather Map
Tropical Storm Tracking
New forecast layout! Learn more

10-Day Weather Forecast

Advertisements
Track Severe Weather on mobile